sensor_id;sensor_type;location;lat;lon;timestamp;P1;durP1;ratioP1;P2;durP2;ratioP2
12707;SDS011;6418;50.824;4.718;2023-04-15T00:01:34;9.53;;;3.87;;
12707;SDS011;6418;50.824;4.718;2023-04-15T00:04:01;9.30;;;4.00;;
12707;SDS011;6418;50.824;4.718;2023-04-15T00:06:28;11.73;;;4.20;;
12707;SDS011;6418;50.824;4.718;2023-04-15T00:08:55;7.47;;;3.80;;
12707;SDS011;6418;50.824;4.718;2023-04-15T00:11:22;9.33;;;4.23;;
12707;SDS011;6418;50.824;4.718;2023-04-15T00:13:49;13.03;;;4.40;;
12707;SDS011;6418;50.824;4.718;2023-04-15T00:16:16;8.43;;;3.97;;
12707;SDS011;6418;50.824;4.718;2023-04-15T00:18:45;8.87;;;4.20;;
12707;SDS011;6418;50.824;4.718;2023-04-15T00:21:11;8.70;;;3.97;;
12707;SDS011;6418;50.824;4.718;2023-04-15T00:23:38;8.30;;;4.40;;
12707;SDS011;6418;50.824;4.718;2023-04-15T00:26:05;12.50;;;4.20;;
12707;SDS011;6418;50.824;4.718;2023-04-15T00:28:32;8.00;;;4.10;;
12707;SDS011;6418;50.824;4.718;2023-04-15T00:31:02;8.03;;;3.90;;
12707;SDS011;6418;50.824;4.718;2023-04-15T00:33:29;7.57;;;4.00;;
12707;SDS011;6418;50.824;4.718;2023-04-15T00:35:58;5.50;;;3.60;;
12707;SDS011;6418;50.824;4.718;2023-04-15T00:38:25;9.33;;;3.97;;
12707;SDS011;6418;50.824;4.718;2023-04-15T00:40:52;8.97;;;4.40;;
12707;SDS011;6418;50.824;4.718;2023-04-15T00:43:19;8.40;;;4.43;;
12707;SDS011;6418;50.824;4.718;2023-04-15T00:45:46;7.70;;;4.20;;
12707;SDS011;6418;50.824;4.718;2023-04-15T00:48:12;11.13;;;4.23;;
12707;SDS011;6418;50.824;4.718;2023-04-15T00:50:41;7.63;;;4.20;;
12707;SDS011;6418;50.824;4.718;2023-04-15T00:53:09;8.50;;;4.23;;
12707;SDS011;6418;50.824;4.718;2023-04-15T00:55:36;8.97;;;3.90;;
12707;SDS011;6418;50.824;4.718;2023-04-15T00:58:03;8.17;;;3.97;;
12707;SDS011;6418;50.824;4.718;2023-04-15T01:00:30;9.47;;;4.40;;
12707;SDS011;6418;50.824;4.718;2023-04-15T01:02:57;7.47;;;4.00;;
12707;SDS011;6418;50.824;4.718;2023-04-15T01:05:24;8.93;;;3.93;;
12707;SDS011;6418;50.824;4.718;2023-04-15T01:07:51;9.23;;;4.60;;
12707;SDS011;6418;50.824;4.718;2023-04-15T01:10:20;11.87;;;4.73;;
12707;SDS011;6418;50.824;4.718;2023-04-15T01:12:47;9.53;;;4.57;;
12707;SDS011;6418;50.824;4.718;2023-04-15T01:15:13;9.77;;;4.30;;
12707;SDS011;6418;50.824;4.718;2023-04-15T01:17:41;8.87;;;4.20;;
12707;SDS011;6418;50.824;4.718;2023-04-15T01:20:08;8.27;;;4.27;;
12707;SDS011;6418;50.824;4.718;2023-04-15T01:22:36;10.27;;;4.30;;
12707;SDS011;6418;50.824;4.718;2023-04-15T01:25:05;8.13;;;4.10;;
12707;SDS011;6418;50.824;4.718;2023-04-15T01:27:36;10.10;;;4.40;;
12707;SDS011;6418;50.824;4.718;2023-04-15T01:30:05;8.40;;;4.30;;
12707;SDS011;6418;50.824;4.718;2023-04-15T01:32:33;9.97;;;4.20;;
12707;SDS011;6418;50.824;4.718;2023-04-15T01:35:00;7.60;;;3.90;;
12707;SDS011;6418;50.824;4.718;2023-04-15T01:37:27;7.57;;;4.30;;
12707;SDS011;6418;50.824;4.718;2023-04-15T01:39:54;9.37;;;4.70;;
12707;SDS011;6418;50.824;4.718;2023-04-15T01:42:22;7.40;;;4.40;;
12707;SDS011;6418;50.824;4.718;2023-04-15T01:44:50;9.80;;;4.57;;
12707;SDS011;6418;50.824;4.718;2023-04-15T01:47:17;10.70;;;4.47;;
12707;SDS011;6418;50.824;4.718;2023-04-15T01:49:44;11.03;;;4.70;;
12707;SDS011;6418;50.824;4.718;2023-04-15T01:52:11;10.03;;;4.63;;
12707;SDS011;6418;50.824;4.718;2023-04-15T01:54:38;8.63;;;4.50;;
12707;SDS011;6418;50.824;4.718;2023-04-15T01:57:05;9.70;;;4.70;;
12707;SDS011;6418;50.824;4.718;2023-04-15T01:59:32;9.30;;;4.80;;
12707;SDS011;6418;50.824;4.718;2023-04-15T02:02:01;8.17;;;4.70;;
12707;SDS011;6418;50.824;4.718;2023-04-15T02:04:28;8.67;;;4.50;;
12707;SDS011;6418;50.824;4.718;2023-04-15T02:06:55;8.17;;;4.37;;
12707;SDS011;6418;50.824;4.718;2023-04-15T02:09:22;10.13;;;4.90;;
12707;SDS011;6418;50.824;4.718;2023-04-15T02:11:49;9.13;;;4.70;;
12707;SDS011;6418;50.824;4.718;2023-04-15T02:14:17;9.43;;;4.70;;
12707;SDS011;6418;50.824;4.718;2023-04-15T02:16:43;9.70;;;4.80;;
12707;SDS011;6418;50.824;4.718;2023-04-15T02:19:12;9.93;;;5.03;;
12707;SDS011;6418;50.824;4.718;2023-04-15T02:21:39;11.13;;;4.97;;
12707;SDS011;6418;50.824;4.718;2023-04-15T02:24:06;11.60;;;5.33;;
12707;SDS011;6418;50.824;4.718;2023-04-15T02:26:33;9.50;;;5.30;;
12707;SDS011;6418;50.824;4.718;2023-04-15T02:29:00;13.77;;;6.00;;
12707;SDS011;6418;50.824;4.718;2023-04-15T02:31:27;11.60;;;6.00;;
12707;SDS011;6418;50.824;4.718;2023-04-15T02:33:54;11.07;;;6.10;;
12707;SDS011;6418;50.824;4.718;2023-04-15T02:36:22;12.63;;;6.13;;
12707;SDS011;6418;50.824;4.718;2023-04-15T02:38:49;12.07;;;6.33;;
12707;SDS011;6418;50.824;4.718;2023-04-15T02:41:16;15.70;;;6.63;;
12707;SDS011;6418;50.824;4.718;2023-04-15T02:43:43;11.63;;;6.20;;
12707;SDS011;6418;50.824;4.718;2023-04-15T02:46:09;13.60;;;6.40;;
12707;SDS011;6418;50.824;4.718;2023-04-15T02:48:38;11.27;;;6.07;;
12707;SDS011;6418;50.824;4.718;2023-04-15T02:51:12;12.43;;;6.40;;
12707;SDS011;6418;50.824;4.718;2023-04-15T02:53:42;13.90;;;6.37;;
12707;SDS011;6418;50.824;4.718;2023-04-15T02:56:09;12.50;;;6.57;;
12707;SDS011;6418;50.824;4.718;2023-04-15T02:58:36;14.23;;;7.03;;
12707;SDS011;6418;50.824;4.718;2023-04-15T03:01:04;14.07;;;7.00;;
12707;SDS011;6418;50.824;4.718;2023-04-15T03:03:31;12.50;;;6.53;;
12707;SDS011;6418;50.824;4.718;2023-04-15T03:05:58;13.07;;;6.50;;
12707;SDS011;6418;50.824;4.718;2023-04-15T03:08:25;14.53;;;7.00;;
12707;SDS011;6418;50.824;4.718;2023-04-15T03:10:53;14.53;;;6.63;;
12707;SDS011;6418;50.824;4.718;2023-04-15T03:13:20;14.60;;;6.77;;
12707;SDS011;6418;50.824;4.718;2023-04-15T03:15:48;12.73;;;6.50;;
12707;SDS011;6418;50.824;4.718;2023-04-15T03:18:15;11.83;;;6.70;;
12707;SDS011;6418;50.824;4.718;2023-04-15T03:20:42;11.37;;;6.60;;
12707;SDS011;6418;50.824;4.718;2023-04-15T03:23:09;13.17;;;7.67;;
12707;SDS011;6418;50.824;4.718;2023-04-15T03:25:36;15.10;;;7.50;;
12707;SDS011;6418;50.824;4.718;2023-04-15T03:28:04;16.70;;;7.73;;
12707;SDS011;6418;50.824;4.718;2023-04-15T03:30:31;14.77;;;8.00;;
12707;SDS011;6418;50.824;4.718;2023-04-15T03:32:58;15.77;;;7.67;;
12707;SDS011;6418;50.824;4.718;2023-04-15T03:35:25;13.37;;;7.97;;
12707;SDS011;6418;50.824;4.718;2023-04-15T03:37:52;17.67;;;6.83;;
12707;SDS011;6418;50.824;4.718;2023-04-15T03:40:19;14.00;;;7.40;;
12707;SDS011;6418;50.824;4.718;2023-04-15T03:42:47;15.57;;;7.50;;
12707;SDS011;6418;50.824;4.718;2023-04-15T03:45:15;14.10;;;7.43;;
12707;SDS011;6418;50.824;4.718;2023-04-15T03:47:42;16.90;;;7.63;;
12707;SDS011;6418;50.824;4.718;2023-04-15T03:50:09;14.30;;;7.30;;
12707;SDS011;6418;50.824;4.718;2023-04-15T03:52:36;14.00;;;7.10;;
12707;SDS011;6418;50.824;4.718;2023-04-15T03:55:03;15.03;;;6.57;;
12707;SDS011;6418;50.824;4.718;2023-04-15T03:57:30;13.30;;;6.73;;
12707;SDS011;6418;50.824;4.718;2023-04-15T04:00:02;11.13;;;6.47;;
12707;SDS011;6418;50.824;4.718;2023-04-15T04:02:30;12.50;;;6.33;;
12707;SDS011;6418;50.824;4.718;2023-04-15T04:04:57;12.30;;;6.60;;
12707;SDS011;6418;50.824;4.718;2023-04-15T04:07:24;12.77;;;6.50;;
12707;SDS011;6418;50.824;4.718;2023-04-15T04:09:51;13.20;;;6.57;;
12707;SDS011;6418;50.824;4.718;2023-04-15T04:12:18;14.20;;;6.60;;
12707;SDS011;6418;50.824;4.718;2023-04-15T04:14:45;12.43;;;6.97;;
12707;SDS011;6418;50.824;4.718;2023-04-15T04:17:12;13.70;;;7.17;;
12707;SDS011;6418;50.824;4.718;2023-04-15T04:19:40;12.47;;;7.00;;
12707;SDS011;6418;50.824;4.718;2023-04-15T04:22:07;14.50;;;7.27;;
12707;SDS011;6418;50.824;4.718;2023-04-15T04:24:34;13.87;;;6.60;;
12707;SDS011;6418;50.824;4.718;2023-04-15T04:27:01;13.37;;;6.73;;
12707;SDS011;6418;50.824;4.718;2023-04-15T04:29:28;13.17;;;7.13;;
12707;SDS011;6418;50.824;4.718;2023-04-15T04:31:55;14.37;;;7.13;;
12707;SDS011;6418;50.824;4.718;2023-04-15T04:34:22;15.87;;;9.17;;
12707;SDS011;6418;50.824;4.718;2023-04-15T04:36:50;19.43;;;11.70;;
12707;SDS011;6418;50.824;4.718;2023-04-15T04:39:17;18.80;;;11.57;;
12707;SDS011;6418;50.824;4.718;2023-04-15T04:41:44;19.30;;;10.80;;
12707;SDS011;6418;50.824;4.718;2023-04-15T04:44:11;17.80;;;9.97;;
12707;SDS011;6418;50.824;4.718;2023-04-15T04:46:38;19.03;;;11.83;;
12707;SDS011;6418;50.824;4.718;2023-04-15T04:49:05;21.07;;;11.10;;
12707;SDS011;6418;50.824;4.718;2023-04-15T04:51:31;19.27;;;9.47;;
12707;SDS011;6418;50.824;4.718;2023-04-15T04:54:00;16.37;;;8.60;;
12707;SDS011;6418;50.824;4.718;2023-04-15T04:56:27;14.53;;;7.93;;
12707;SDS011;6418;50.824;4.718;2023-04-15T04:58:54;15.03;;;8.13;;
12707;SDS011;6418;50.824;4.718;2023-04-15T05:01:21;14.70;;;7.87;;
12707;SDS011;6418;50.824;4.718;2023-04-15T05:03:48;14.60;;;8.17;;
12707;SDS011;6418;50.824;4.718;2023-04-15T05:06:15;15.63;;;8.83;;
12707;SDS011;6418;50.824;4.718;2023-04-15T05:08:41;16.10;;;8.43;;
12707;SDS011;6418;50.824;4.718;2023-04-15T05:11:10;17.33;;;8.50;;
12707;SDS011;6418;50.824;4.718;2023-04-15T05:13:37;16.27;;;8.37;;
12707;SDS011;6418;50.824;4.718;2023-04-15T05:16:04;17.17;;;8.40;;
12707;SDS011;6418;50.824;4.718;2023-04-15T05:18:31;15.07;;;8.40;;
12707;SDS011;6418;50.824;4.718;2023-04-15T05:20:58;16.53;;;8.77;;
12707;SDS011;6418;50.824;4.718;2023-04-15T05:23:25;16.13;;;8.30;;
12707;SDS011;6418;50.824;4.718;2023-04-15T05:25:52;15.00;;;8.67;;
12707;SDS011;6418;50.824;4.718;2023-04-15T05:28:21;15.93;;;8.97;;
12707;SDS011;6418;50.824;4.718;2023-04-15T05:30:48;16.77;;;8.50;;
12707;SDS011;6418;50.824;4.718;2023-04-15T05:33:15;15.30;;;8.60;;
12707;SDS011;6418;50.824;4.718;2023-04-15T05:35:42;13.77;;;8.60;;
12707;SDS011;6418;50.824;4.718;2023-04-15T05:38:09;15.53;;;8.90;;
12707;SDS011;6418;50.824;4.718;2023-04-15T05:40:36;18.40;;;8.97;;
12707;SDS011;6418;50.824;4.718;2023-04-15T05:43:02;15.93;;;9.00;;
12707;SDS011;6418;50.824;4.718;2023-04-15T05:45:31;17.03;;;8.67;;
12707;SDS011;6418;50.824;4.718;2023-04-15T05:47:58;15.60;;;9.10;;
12707;SDS011;6418;50.824;4.718;2023-04-15T05:50:25;16.87;;;8.67;;
12707;SDS011;6418;50.824;4.718;2023-04-15T05:52:52;15.20;;;9.00;;
12707;SDS011;6418;50.824;4.718;2023-04-15T05:55:18;13.93;;;8.67;;
12707;SDS011;6418;50.824;4.718;2023-04-15T05:57:46;16.07;;;8.67;;
12707;SDS011;6418;50.824;4.718;2023-04-15T06:00:13;15.07;;;8.73;;
12707;SDS011;6418;50.824;4.718;2023-04-15T06:02:42;18.40;;;8.93;;
12707;SDS011;6418;50.824;4.718;2023-04-15T06:05:09;16.93;;;9.27;;
12707;SDS011;6418;50.824;4.718;2023-04-15T06:07:36;16.23;;;8.67;;
12707;SDS011;6418;50.824;4.718;2023-04-15T06:10:03;17.33;;;8.97;;
12707;SDS011;6418;50.824;4.718;2023-04-15T06:12:31;16.03;;;8.80;;
12707;SDS011;6418;50.824;4.718;2023-04-15T06:14:58;17.33;;;8.90;;
12707;SDS011;6418;50.824;4.718;2023-04-15T06:17:25;16.73;;;8.33;;
12707;SDS011;6418;50.824;4.718;2023-04-15T06:19:53;17.83;;;9.37;;
12707;SDS011;6418;50.824;4.718;2023-04-15T06:22:20;18.57;;;8.70;;
12707;SDS011;6418;50.824;4.718;2023-04-15T06:24:47;16.27;;;9.00;;
12707;SDS011;6418;50.824;4.718;2023-04-15T06:27:15;15.13;;;8.90;;
12707;SDS011;6418;50.824;4.718;2023-04-15T06:29:42;17.53;;;8.40;;
12707;SDS011;6418;50.824;4.718;2023-04-15T06:32:09;16.70;;;8.00;;
12707;SDS011;6418;50.824;4.718;2023-04-15T06:34:37;17.93;;;8.33;;
12707;SDS011;6418;50.824;4.718;2023-04-15T06:37:06;18.40;;;8.60;;
12707;SDS011;6418;50.824;4.718;2023-04-15T06:39:35;18.17;;;8.27;;
12707;SDS011;6418;50.824;4.718;2023-04-15T06:42:02;18.77;;;8.87;;
12707;SDS011;6418;50.824;4.718;2023-04-15T06:44:29;14.47;;;7.93;;
12707;SDS011;6418;50.824;4.718;2023-04-15T06:46:56;17.00;;;8.37;;
12707;SDS011;6418;50.824;4.718;2023-04-15T06:49:23;15.30;;;8.40;;
12707;SDS011;6418;50.824;4.718;2023-04-15T06:51:50;17.00;;;8.30;;
12707;SDS011;6418;50.824;4.718;2023-04-15T06:54:19;17.00;;;8.77;;
12707;SDS011;6418;50.824;4.718;2023-04-15T06:56:46;17.53;;;8.43;;
12707;SDS011;6418;50.824;4.718;2023-04-15T06:59:13;16.57;;;8.50;;
12707;SDS011;6418;50.824;4.718;2023-04-15T07:01:40;16.67;;;8.30;;
12707;SDS011;6418;50.824;4.718;2023-04-15T07:04:07;17.00;;;8.10;;
12707;SDS011;6418;50.824;4.718;2023-04-15T07:06:34;14.97;;;8.33;;
12707;SDS011;6418;50.824;4.718;2023-04-15T07:09:00;17.07;;;9.30;;
12707;SDS011;6418;50.824;4.718;2023-04-15T07:11:30;17.57;;;9.43;;
12707;SDS011;6418;50.824;4.718;2023-04-15T07:13:57;21.07;;;10.00;;
12707;SDS011;6418;50.824;4.718;2023-04-15T07:16:24;20.37;;;9.97;;
12707;SDS011;6418;50.824;4.718;2023-04-15T07:18:51;18.70;;;9.90;;
12707;SDS011;6418;50.824;4.718;2023-04-15T07:21:18;18.70;;;9.30;;
12707;SDS011;6418;50.824;4.718;2023-04-15T07:23:45;19.50;;;9.13;;
12707;SDS011;6418;50.824;4.718;2023-04-15T07:26:12;16.07;;;8.87;;
12707;SDS011;6418;50.824;4.718;2023-04-15T07:28:40;18.30;;;9.40;;
12707;SDS011;6418;50.824;4.718;2023-04-15T07:31:07;18.23;;;9.40;;
12707;SDS011;6418;50.824;4.718;2023-04-15T07:33:34;17.63;;;8.83;;
12707;SDS011;6418;50.824;4.718;2023-04-15T07:36:01;18.50;;;9.23;;
12707;SDS011;6418;50.824;4.718;2023-04-15T07:38:28;15.67;;;9.23;;
12707;SDS011;6418;50.824;4.718;2023-04-15T07:40:55;17.10;;;9.47;;
12707;SDS011;6418;50.824;4.718;2023-04-15T07:43:22;19.43;;;9.90;;
12707;SDS011;6418;50.824;4.718;2023-04-15T07:45:50;17.00;;;9.43;;
12707;SDS011;6418;50.824;4.718;2023-04-15T07:48:17;18.07;;;9.47;;
12707;SDS011;6418;50.824;4.718;2023-04-15T07:50:44;16.90;;;9.67;;
12707;SDS011;6418;50.824;4.718;2023-04-15T07:53:11;20.57;;;9.60;;
12707;SDS011;6418;50.824;4.718;2023-04-15T07:55:38;19.03;;;9.53;;
12707;SDS011;6418;50.824;4.718;2023-04-15T07:58:05;18.23;;;9.33;;
12707;SDS011;6418;50.824;4.718;2023-04-15T08:00:32;19.77;;;10.07;;
12707;SDS011;6418;50.824;4.718;2023-04-15T08:03:00;15.23;;;9.33;;
12707;SDS011;6418;50.824;4.718;2023-04-15T08:05:27;17.67;;;9.47;;
12707;SDS011;6418;50.824;4.718;2023-04-15T08:07:54;17.30;;;9.00;;
12707;SDS011;6418;50.824;4.718;2023-04-15T08:10:22;18.60;;;9.00;;
12707;SDS011;6418;50.824;4.718;2023-04-15T08:12:49;19.27;;;9.13;;
12707;SDS011;6418;50.824;4.718;2023-04-15T08:15:18;22.43;;;9.20;;
12707;SDS011;6418;50.824;4.718;2023-04-15T08:17:45;16.70;;;8.80;;
12707;SDS011;6418;50.824;4.718;2023-04-15T08:20:14;17.30;;;8.43;;
12707;SDS011;6418;50.824;4.718;2023-04-15T08:22:41;16.30;;;8.17;;
12707;SDS011;6418;50.824;4.718;2023-04-15T08:25:08;15.03;;;7.97;;
12707;SDS011;6418;50.824;4.718;2023-04-15T08:27:35;17.63;;;8.60;;
12707;SDS011;6418;50.824;4.718;2023-04-15T08:30:02;16.17;;;8.37;;
12707;SDS011;6418;50.824;4.718;2023-04-15T08:32:30;14.73;;;8.40;;
12707;SDS011;6418;50.824;4.718;2023-04-15T08:34:57;16.83;;;8.90;;
12707;SDS011;6418;50.824;4.718;2023-04-15T08:37:26;16.20;;;8.73;;
12707;SDS011;6418;50.824;4.718;2023-04-15T08:39:52;17.40;;;8.50;;
12707;SDS011;6418;50.824;4.718;2023-04-15T08:42:22;19.30;;;8.60;;
12707;SDS011;6418;50.824;4.718;2023-04-15T08:44:52;16.27;;;8.40;;
12707;SDS011;6418;50.824;4.718;2023-04-15T08:47:20;18.93;;;8.57;;
12707;SDS011;6418;50.824;4.718;2023-04-15T08:49:51;16.67;;;8.33;;
12707;SDS011;6418;50.824;4.718;2023-04-15T08:52:20;17.73;;;8.50;;
12707;SDS011;6418;50.824;4.718;2023-04-15T08:54:49;19.57;;;8.73;;
12707;SDS011;6418;50.824;4.718;2023-04-15T08:57:16;16.37;;;8.63;;
12707;SDS011;6418;50.824;4.718;2023-04-15T08:59:43;18.80;;;9.20;;
12707;SDS011;6418;50.824;4.718;2023-04-15T09:02:10;14.67;;;8.43;;
12707;SDS011;6418;50.824;4.718;2023-04-15T09:04:38;16.77;;;9.10;;
12707;SDS011;6418;50.824;4.718;2023-04-15T09:07:06;18.40;;;10.37;;
12707;SDS011;6418;50.824;4.718;2023-04-15T09:09:33;18.47;;;10.30;;
12707;SDS011;6418;50.824;4.718;2023-04-15T09:12:02;18.80;;;9.90;;
12707;SDS011;6418;50.824;4.718;2023-04-15T09:14:29;17.50;;;9.97;;
12707;SDS011;6418;50.824;4.718;2023-04-15T09:17:17;17.60;;;10.40;;
12707;SDS011;6418;50.824;4.718;2023-04-15T09:19:45;17.50;;;10.43;;
12707;SDS011;6418;50.824;4.718;2023-04-15T09:22:12;20.00;;;10.50;;
12707;SDS011;6418;50.824;4.718;2023-04-15T09:24:40;19.83;;;9.87;;
12707;SDS011;6418;50.824;4.718;2023-04-15T09:27:09;18.73;;;9.77;;
12707;SDS011;6418;50.824;4.718;2023-04-15T09:29:36;17.87;;;9.47;;
12707;SDS011;6418;50.824;4.718;2023-04-15T09:32:09;20.03;;;9.97;;
12707;SDS011;6418;50.824;4.718;2023-04-15T09:34:37;16.07;;;9.80;;
12707;SDS011;6418;50.824;4.718;2023-04-15T09:37:04;17.47;;;10.30;;
12707;SDS011;6418;50.824;4.718;2023-04-15T09:42:18;19.17;;;9.70;;
12707;SDS011;6418;50.824;4.718;2023-04-15T09:44:51;14.27;;;7.97;;
12707;SDS011;6418;50.824;4.718;2023-04-15T09:47:27;13.73;;;7.77;;
12707;SDS011;6418;50.824;4.718;2023-04-15T09:49:55;15.20;;;8.20;;
12707;SDS011;6418;50.824;4.718;2023-04-15T09:52:22;14.20;;;7.27;;
12707;SDS011;6418;50.824;4.718;2023-04-15T09:54:51;14.43;;;8.10;;
12707;SDS011;6418;50.824;4.718;2023-04-15T09:57:20;15.00;;;7.87;;
12707;SDS011;6418;50.824;4.718;2023-04-15T09:59:48;17.10;;;8.57;;
12707;SDS011;6418;50.824;4.718;2023-04-15T10:02:15;12.37;;;6.77;;
12707;SDS011;6418;50.824;4.718;2023-04-15T10:04:44;13.53;;;7.70;;
12707;SDS011;6418;50.824;4.718;2023-04-15T10:07:13;15.77;;;8.03;;
12707;SDS011;6418;50.824;4.718;2023-04-15T10:09:42;13.93;;;7.87;;
12707;SDS011;6418;50.824;4.718;2023-04-15T10:12:11;16.27;;;8.37;;
12707;SDS011;6418;50.824;4.718;2023-04-15T10:14:40;15.97;;;6.90;;
12707;SDS011;6418;50.824;4.718;2023-04-15T10:17:10;14.70;;;8.17;;
12707;SDS011;6418;50.824;4.718;2023-04-15T10:19:37;13.77;;;7.77;;
12707;SDS011;6418;50.824;4.718;2023-04-15T10:22:05;16.40;;;7.13;;
12707;SDS011;6418;50.824;4.718;2023-04-15T10:24:32;13.23;;;6.63;;
12707;SDS011;6418;50.824;4.718;2023-04-15T10:27:00;13.63;;;6.77;;
12707;SDS011;6418;50.824;4.718;2023-04-15T10:29:29;13.00;;;6.73;;
12707;SDS011;6418;50.824;4.718;2023-04-15T10:31:58;16.63;;;6.93;;
12707;SDS011;6418;50.824;4.718;2023-04-15T10:34:26;12.60;;;6.70;;
12707;SDS011;6418;50.824;4.718;2023-04-15T10:36:54;13.00;;;6.27;;
12707;SDS011;6418;50.824;4.718;2023-04-15T10:39:38;13.47;;;6.90;;
12707;SDS011;6418;50.824;4.718;2023-04-15T10:42:07;11.03;;;6.17;;
12707;SDS011;6418;50.824;4.718;2023-04-15T10:44:35;12.77;;;6.93;;
12707;SDS011;6418;50.824;4.718;2023-04-15T10:47:10;10.73;;;6.17;;
12707;SDS011;6418;50.824;4.718;2023-04-15T10:49:42;10.20;;;5.57;;
12707;SDS011;6418;50.824;4.718;2023-04-15T10:52:10;11.53;;;5.57;;
12707;SDS011;6418;50.824;4.718;2023-04-15T10:54:37;9.60;;;5.13;;
12707;SDS011;6418;50.824;4.718;2023-04-15T10:57:08;8.77;;;5.07;;
12707;SDS011;6418;50.824;4.718;2023-04-15T11:02:38;11.67;;;5.97;;
12707;SDS011;6418;50.824;4.718;2023-04-15T11:05:06;9.40;;;5.20;;
12707;SDS011;6418;50.824;4.718;2023-04-15T11:07:34;8.50;;;5.03;;
12707;SDS011;6418;50.824;4.718;2023-04-15T11:10:02;8.87;;;4.70;;
12707;SDS011;6418;50.824;4.718;2023-04-15T11:12:33;9.63;;;5.17;;
12707;SDS011;6418;50.824;4.718;2023-04-15T11:17:54;8.43;;;4.90;;
12707;SDS011;6418;50.824;4.718;2023-04-15T11:20:21;10.77;;;4.90;;
12707;SDS011;6418;50.824;4.718;2023-04-15T11:22:48;8.37;;;4.63;;
12707;SDS011;6418;50.824;4.718;2023-04-15T11:25:22;10.20;;;4.67;;
12707;SDS011;6418;50.824;4.718;2023-04-15T11:27:50;9.47;;;4.90;;
12707;SDS011;6418;50.824;4.718;2023-04-15T11:30:19;9.23;;;4.53;;
12707;SDS011;6418;50.824;4.718;2023-04-15T11:32:47;9.07;;;4.97;;
12707;SDS011;6418;50.824;4.718;2023-04-15T11:35:16;9.70;;;5.30;;
12707;SDS011;6418;50.824;4.718;2023-04-15T11:37:44;11.97;;;4.90;;
12707;SDS011;6418;50.824;4.718;2023-04-15T11:40:12;8.63;;;4.80;;
12707;SDS011;6418;50.824;4.718;2023-04-15T11:42:41;10.00;;;4.70;;
12707;SDS011;6418;50.824;4.718;2023-04-15T11:45:09;8.07;;;4.43;;
12707;SDS011;6418;50.824;4.718;2023-04-15T11:47:37;8.43;;;4.50;;
12707;SDS011;6418;50.824;4.718;2023-04-15T11:50:16;9.40;;;4.93;;
12707;SDS011;6418;50.824;4.718;2023-04-15T11:55:30;11.30;;;5.20;;
12707;SDS011;6418;50.824;4.718;2023-04-15T11:58:09;7.47;;;4.63;;
12707;SDS011;6418;50.824;4.718;2023-04-15T12:00:38;9.03;;;4.60;;
12707;SDS011;6418;50.824;4.718;2023-04-15T12:03:12;7.63;;;4.60;;
12707;SDS011;6418;50.824;4.718;2023-04-15T12:09:00;9.20;;;4.70;;
12707;SDS011;6418;50.824;4.718;2023-04-15T12:11:39;10.10;;;4.90;;
12707;SDS011;6418;50.824;4.718;2023-04-15T12:14:08;9.07;;;4.40;;
12707;SDS011;6418;50.824;4.718;2023-04-15T12:16:42;7.73;;;4.60;;
12707;SDS011;6418;50.824;4.718;2023-04-15T12:19:11;10.30;;;4.90;;
12707;SDS011;6418;50.824;4.718;2023-04-15T12:21:42;9.70;;;4.57;;
12707;SDS011;6418;50.824;4.718;2023-04-15T12:24:11;7.23;;;4.07;;
12707;SDS011;6418;50.824;4.718;2023-04-15T12:26:42;8.40;;;4.10;;
12707;SDS011;6418;50.824;4.718;2023-04-15T12:29:10;8.07;;;4.47;;
12707;SDS011;6418;50.824;4.718;2023-04-15T12:31:45;8.37;;;4.30;;
12707;SDS011;6418;50.824;4.718;2023-04-15T12:34:14;7.83;;;4.10;;
12707;SDS011;6418;50.824;4.718;2023-04-15T12:36:43;7.47;;;4.10;;
12707;SDS011;6418;50.824;4.718;2023-04-15T12:39:10;9.23;;;4.40;;
12707;SDS011;6418;50.824;4.718;2023-04-15T12:41:37;7.53;;;4.37;;
12707;SDS011;6418;50.824;4.718;2023-04-15T12:44:04;9.20;;;4.63;;
12707;SDS011;6418;50.824;4.718;2023-04-15T12:46:31;7.80;;;3.97;;
12707;SDS011;6418;50.824;4.718;2023-04-15T12:48:57;6.90;;;4.00;;
12707;SDS011;6418;50.824;4.718;2023-04-15T12:51:24;7.33;;;3.90;;
12707;SDS011;6418;50.824;4.718;2023-04-15T12:53:53;5.53;;;3.50;;
12707;SDS011;6418;50.824;4.718;2023-04-15T12:56:20;5.10;;;3.40;;
12707;SDS011;6418;50.824;4.718;2023-04-15T12:58:48;7.40;;;3.50;;
12707;SDS011;6418;50.824;4.718;2023-04-15T13:01:15;8.83;;;3.83;;
12707;SDS011;6418;50.824;4.718;2023-04-15T13:03:42;8.20;;;3.80;;
12707;SDS011;6418;50.824;4.718;2023-04-15T13:06:09;6.93;;;3.60;;
12707;SDS011;6418;50.824;4.718;2023-04-15T13:08:36;5.43;;;3.20;;
12707;SDS011;6418;50.824;4.718;2023-04-15T13:11:04;6.37;;;3.60;;
12707;SDS011;6418;50.824;4.718;2023-04-15T13:13:31;6.43;;;3.80;;
12707;SDS011;6418;50.824;4.718;2023-04-15T13:15:58;6.50;;;3.90;;
12707;SDS011;6418;50.824;4.718;2023-04-15T13:18:25;8.53;;;3.53;;
12707;SDS011;6418;50.824;4.718;2023-04-15T13:20:55;6.83;;;3.90;;
12707;SDS011;6418;50.824;4.718;2023-04-15T13:23:22;6.77;;;3.90;;
12707;SDS011;6418;50.824;4.718;2023-04-15T13:25:49;4.90;;;3.70;;
12707;SDS011;6418;50.824;4.718;2023-04-15T13:28:17;8.17;;;4.07;;
12707;SDS011;6418;50.824;4.718;2023-04-15T13:30:44;7.53;;;4.20;;
12707;SDS011;6418;50.824;4.718;2023-04-15T13:33:12;5.47;;;3.63;;
12707;SDS011;6418;50.824;4.718;2023-04-15T13:35:39;6.67;;;3.67;;
12707;SDS011;6418;50.824;4.718;2023-04-15T13:38:06;6.37;;;3.83;;
12707;SDS011;6418;50.824;4.718;2023-04-15T13:40:33;5.30;;;3.33;;
12707;SDS011;6418;50.824;4.718;2023-04-15T13:43:00;7.60;;;4.10;;
12707;SDS011;6418;50.824;4.718;2023-04-15T13:45:29;6.70;;;3.63;;
12707;SDS011;6418;50.824;4.718;2023-04-15T13:47:56;8.30;;;4.07;;
12707;SDS011;6418;50.824;4.718;2023-04-15T13:50:23;9.30;;;3.83;;
12707;SDS011;6418;50.824;4.718;2023-04-15T13:52:50;7.07;;;3.60;;
12707;SDS011;6418;50.824;4.718;2023-04-15T13:55:17;6.10;;;3.67;;
12707;SDS011;6418;50.824;4.718;2023-04-15T13:57:44;5.10;;;3.50;;
12707;SDS011;6418;50.824;4.718;2023-04-15T14:00:11;7.83;;;3.80;;
12707;SDS011;6418;50.824;4.718;2023-04-15T14:02:40;6.40;;;3.47;;
12707;SDS011;6418;50.824;4.718;2023-04-15T14:05:08;13.23;;;4.17;;
12707;SDS011;6418;50.824;4.718;2023-04-15T14:07:35;7.70;;;4.00;;
12707;SDS011;6418;50.824;4.718;2023-04-15T14:10:02;7.97;;;3.97;;
12707;SDS011;6418;50.824;4.718;2023-04-15T14:12:30;7.87;;;4.07;;
12707;SDS011;6418;50.824;4.718;2023-04-15T14:14:57;8.60;;;4.40;;
12707;SDS011;6418;50.824;4.718;2023-04-15T14:17:24;6.43;;;4.10;;
12707;SDS011;6418;50.824;4.718;2023-04-15T14:19:52;7.37;;;4.50;;
12707;SDS011;6418;50.824;4.718;2023-04-15T14:22:19;7.80;;;4.30;;
12707;SDS011;6418;50.824;4.718;2023-04-15T14:24:46;9.33;;;4.07;;
12707;SDS011;6418;50.824;4.718;2023-04-15T14:27:13;8.47;;;4.17;;
12707;SDS011;6418;50.824;4.718;2023-04-15T14:29:40;7.50;;;4.10;;
12707;SDS011;6418;50.824;4.718;2023-04-15T14:32:07;7.97;;;3.70;;
12707;SDS011;6418;50.824;4.718;2023-04-15T14:34:34;8.47;;;4.37;;
12707;SDS011;6418;50.824;4.718;2023-04-15T14:37:02;8.63;;;4.40;;
12707;SDS011;6418;50.824;4.718;2023-04-15T14:39:30;10.73;;;4.40;;
12707;SDS011;6418;50.824;4.718;2023-04-15T14:41:57;5.90;;;3.57;;
12707;SDS011;6418;50.824;4.718;2023-04-15T14:44:24;6.20;;;3.60;;
12707;SDS011;6418;50.824;4.718;2023-04-15T14:46:51;5.37;;;3.40;;
12707;SDS011;6418;50.824;4.718;2023-04-15T14:49:18;5.33;;;3.40;;
12707;SDS011;6418;50.824;4.718;2023-04-15T14:51:45;5.13;;;3.50;;
12707;SDS011;6418;50.824;4.718;2023-04-15T14:54:14;8.70;;;3.43;;
12707;SDS011;6418;50.824;4.718;2023-04-15T14:56:41;8.60;;;3.70;;
12707;SDS011;6418;50.824;4.718;2023-04-15T14:59:08;7.43;;;4.00;;
12707;SDS011;6418;50.824;4.718;2023-04-15T15:01:35;8.00;;;3.90;;
12707;SDS011;6418;50.824;4.718;2023-04-15T15:04:02;6.93;;;3.60;;
12707;SDS011;6418;50.824;4.718;2023-04-15T15:06:29;8.40;;;3.83;;
12707;SDS011;6418;50.824;4.718;2023-04-15T15:08:56;6.90;;;4.00;;
12707;SDS011;6418;50.824;4.718;2023-04-15T15:11:25;7.67;;;3.63;;